Time;durP1;ratioP1;P1;durP2;ratioP2;P2;SDS_P1;SDS_P2;PMS_P1;PMS_P2;Temp;Humidity;BMP_temperature;BMP_pressure;BME280_temperature;BME280_humidity;BME280_pressure;Samples;Min_cycle;Max_cycle;Signal;HPM_P1;HPM_P2
2022/03/14 00:00:29;;;;;;;6.80;3.90;;;;;;;0.73;49.57;101168.52;105076;1277;75135;-70
2022/03/14 00:02:56;;;;;;;7.50;4.10;;;;;;;0.73;49.91;101169.25;105130;1274;71450;-70
2022/03/14 00:05:24;;;;;;;9.70;4.80;;;;;;;0.73;50.29;101167.16;104984;1274;72966;-71
2022/03/14 00:07:51;;;;;;;10.20;4.40;;;;;;;0.73;50.35;101165.38;105162;1274;60451;-70
2022/03/14 00:10:26;;;;;;;8.40;4.30;;;;;;;0.73;49.86;101164.73;105126;1274;61419;-68
2022/03/14 00:12:55;;;;;;;8.10;4.60;;;;;;;0.70;49.88;101166.27;105124;1274;73253;-70
2022/03/14 00:15:25;;;;;;;9.10;5.50;;;;;;;0.66;49.84;101169.34;105100;1274;71354;-71
2022/03/14 00:17:55;;;;;;;11.30;4.80;;;;;;;0.62;50.05;101176.04;105029;1274;73142;-70
2022/03/14 00:20:21;;;;;;;8.50;5.10;;;;;;;0.57;50.00;101176.52;105142;1274;60958;-70
2022/03/14 00:22:49;;;;;;;10.30;6.00;;;;;;;0.56;50.59;101174.34;105184;1274;60761;-69
2022/03/14 00:25:15;;;;;;;7.90;4.20;;;;;;;0.57;50.53;101175.47;104928;1274;74167;-68
2022/03/14 00:27:42;;;;;;;8.30;4.30;;;;;;;0.57;50.51;101170.78;105171;1274;71369;-70
2022/03/14 00:30:11;;;;;;;8.30;5.00;;;;;;;0.56;50.39;101175.87;105161;1274;73090;-69
2022/03/14 00:32:39;;;;;;;6.30;4.50;;;;;;;0.55;50.31;101183.09;105123;1274;60656;-69
2022/03/14 00:35:09;;;;;;;11.10;4.80;;;;;;;0.57;50.57;101188.04;104994;1274;60418;-72
2022/03/14 00:37:38;;;;;;;9.50;5.20;;;;;;;0.57;50.56;101191.67;105250;1274;75634;-70
2022/03/14 00:40:08;;;;;;;6.90;4.70;;;;;;;0.56;50.48;101196.78;105080;1274;71110;-71
2022/03/14 00:42:36;;;;;;;8.90;4.40;;;;;;;0.53;50.56;101194.73;105126;1274;73131;-72
2022/03/14 00:45:04;;;;;;;7.70;4.10;;;;;;;0.49;50.57;101194.42;105116;1274;60585;-71
2022/03/14 00:47:33;;;;;;;8.70;4.80;;;;;;;0.46;50.71;101197.42;105175;1274;61058;-70
2022/03/14 00:50:00;;;;;;;6.70;3.70;;;;;;;0.42;50.75;101193.52;105071;1274;74161;-71
2022/03/14 00:52:30;;;;;;;8.70;5.40;;;;;;;0.37;50.89;101190.52;105096;1274;71182;-71
2022/03/14 00:54:56;;;;;;;7.50;4.30;;;;;;;0.34;50.92;101186.35;105306;1274;74808;-71
2022/03/14 00:57:23;;;;;;;7.80;4.80;;;;;;;0.32;51.03;101187.35;105020;1274;60527;-71
2022/03/14 00:59:53;;;;;;;5.20;3.90;;;;;;;0.31;51.17;101188.27;105014;1275;60654;-72
2022/03/14 01:02:19;;;;;;;7.50;4.30;;;;;;;0.28;51.16;101187.77;104936;1277;75338;-72
2022/03/14 01:04:46;;;;;;;7.70;4.90;;;;;;;0.25;51.37;101187.45;105201;1274;71330;-71
2022/03/14 01:07:13;;;;;;;6.50;3.80;;;;;;;0.22;51.56;101182.71;105011;1274;73247;-72
2022/03/14 01:09:43;;;;;;;8.40;4.30;;;;;;;0.22;51.69;101189.55;105161;1274;61028;-71
2022/03/14 01:12:10;;;;;;;8.20;4.20;;;;;;;0.22;51.91;101188.31;105163;1274;60546;-71
2022/03/14 01:14:37;;;;;;;8.70;4.40;;;;;;;0.24;52.23;101191.48;105123;1274;74124;-71
2022/03/14 01:17:04;;;;;;;8.70;4.60;;;;;;;0.28;51.99;101199.27;105055;1274;71850;-71
2022/03/14 01:19:38;;;;;;;6.40;4.20;;;;;;;0.31;52.04;101196.80;104994;1274;73082;-70
2022/03/14 01:22:10;;;;;;;8.60;4.50;;;;;;;0.33;52.19;101193.35;105033;1274;60517;-73
2022/03/14 01:24:40;;;;;;;;;;;;;;;0.34;52.08;101197.60;105027;1274;61499;-70
2022/03/14 01:27:07;;;;;;;6.00;3.90;;;;;;;0.35;52.15;101199.47;104964;1274;74210;-71
2022/03/14 01:29:38;;;;;;;9.10;4.30;;;;;;;0.37;52.16;101201.66;105049;1274;71571;-71
2022/03/14 01:32:16;;;;;;;9.10;4.10;;;;;;;0.37;52.17;101209.42;105082;1274;73738;-69
2022/03/14 01:34:52;;;;;;;5.70;3.30;;;;;;;0.38;51.94;101212.54;104990;1274;60466;-70
2022/03/14 01:37:19;;;;;;;8.80;5.70;;;;;;;0.38;52.24;101212.88;105127;1274;60571;-74
2022/03/14 01:39:46;;;;;;;7.30;4.60;;;;;;;0.37;51.92;101213.09;105281;1274;73892;-71
2022/03/14 01:42:20;;;;;;;8.40;4.20;;;;;;;0.37;51.89;101214.66;105175;1274;72699;-72
2022/03/14 01:44:47;;;;;;;8.80;4.60;;;;;;;0.37;51.94;101218.68;105065;1274;73016;-73
2022/03/14 01:47:16;;;;;;;6.60;4.00;;;;;;;0.36;52.09;101216.48;105077;1274;60610;-71
2022/03/14 01:49:45;;;;;;;7.30;4.40;;;;;;;0.37;52.14;101215.16;105124;1274;61646;-71
2022/03/14 01:52:13;;;;;;;8.10;3.90;;;;;;;0.36;51.88;101212.61;105234;1274;74307;-71
2022/03/14 01:54:41;;;;;;;7.90;4.00;;;;;;;0.37;52.43;101214.86;105048;1274;72476;-71
2022/03/14 01:57:08;;;;;;;8.90;5.20;;;;;;;0.37;52.35;101212.91;105141;1274;74587;-72
2022/03/14 01:59:37;;;;;;;10.30;4.80;;;;;;;0.36;52.11;101215.23;105083;1273;60518;-71
2022/03/14 02:02:04;;;;;;;8.20;4.10;;;;;;;0.35;52.23;101217.61;104975;1274;61632;-71
2022/03/14 02:04:31;;;;;;;7.20;4.10;;;;;;;0.31;52.14;101218.88;104979;1274;74335;-73
2022/03/14 02:06:58;;;;;;;6.60;3.80;;;;;;;0.28;52.37;101216.98;105149;1274;61000;-70
2022/03/14 02:09:25;;;;;;;6.80;3.80;;;;;;;0.26;52.34;101217.14;104962;1274;73151;-71
2022/03/14 02:11:57;;;;;;;7.20;3.50;;;;;;;0.22;52.55;101219.43;104989;1274;60458;-71
2022/03/14 02:14:24;;;;;;;8.00;4.30;;;;;;;0.19;52.44;101220.86;104957;1274;60830;-74
2022/03/14 02:16:52;;;;;;;11.20;5.00;;;;;;;0.15;52.75;101223.19;105097;1274;74126;-72
2022/03/14 02:19:20;;;;;;;8.00;4.10;;;;;;;0.11;53.15;101227.30;104951;1274;72813;-68
2022/03/14 02:21:47;;;;;;;9.10;4.90;;;;;;;0.07;53.37;101227.66;105118;1274;73007;-71
2022/03/14 02:24:14;;;;;;;6.80;4.10;;;;;;;0.04;53.60;101227.52;105118;1274;60469;-72
2022/03/14 02:26:42;;;;;;;8.60;4.90;;;;;;;0.02;53.55;101229.42;105108;1274;61621;-71
2022/03/14 02:29:10;;;;;;;7.20;3.90;;;;;;;-0.02;53.58;101230.85;105213;1274;74190;-71
2022/03/14 02:31:37;;;;;;;8.90;4.20;;;;;;;-0.06;53.52;101233.98;106780;1268;153225;-71
2022/03/14 02:34:06;;;;;;;8.80;4.40;;;;;;;-0.09;53.58;101232.59;108384;1274;73000;-70
2022/03/14 02:36:39;;;;;;;8.40;4.60;;;;;;;-0.10;53.83;101235.68;108341;1274;59539;-71
2022/03/14 02:39:06;;;;;;;7.70;4.40;;;;;;;-0.12;53.93;101238.73;108314;1274;61282;-72
2022/03/14 02:41:33;;;;;;;6.20;4.10;;;;;;;-0.12;54.05;101244.63;108285;1274;75683;-71
2022/03/14 02:44:01;;;;;;;8.20;4.90;;;;;;;-0.12;53.84;101251.92;108253;1274;70986;-72
2022/03/14 02:46:29;;;;;;;9.70;4.50;;;;;;;-0.12;53.90;101251.23;108364;1272;73637;-71
2022/03/14 02:48:55;;;;;;;8.40;5.20;;;;;;;-0.12;53.82;101255.63;108281;1274;59959;-72
2022/03/14 02:51:22;;;;;;;9.90;4.70;;;;;;;-0.13;53.87;101254.77;108272;1274;58171;-72
2022/03/14 02:53:49;;;;;;;8.90;3.90;;;;;;;-0.13;53.83;101253.20;108309;1274;73149;-71
2022/03/14 02:56:16;;;;;;;9.60;4.20;;;;;;;-0.12;53.93;101253.50;108145;1274;72384;-72
2022/03/14 02:58:43;;;;;;;8.80;4.20;;;;;;;-0.11;53.94;101259.85;108208;1275;74015;-71
2022/03/14 03:01:10;;;;;;;7.70;4.10;;;;;;;-0.08;54.02;101260.77;108236;1274;61032;-71
2022/03/14 03:03:37;;;;;;;8.40;5.20;;;;;;;-0.07;53.97;101253.88;108248;1274;60464;-71
2022/03/14 03:06:12;;;;;;;9.30;4.80;;;;;;;-0.05;53.90;101257.96;108186;1275;60105;-71
2022/03/14 03:08:43;;;;;;;5.50;3.00;;;;;;;-0.05;53.94;101259.83;108278;1274;72610;-71
2022/03/14 03:11:11;;;;;;;11.30;5.40;;;;;;;-0.04;53.98;101260.48;108277;1274;74245;-72
2022/03/14 03:13:41;;;;;;;7.10;4.20;;;;;;;-0.04;53.78;101258.73;108328;1274;60843;-71
2022/03/14 03:16:13;;;;;;;10.10;4.90;;;;;;;-0.05;54.22;101256.88;108238;1274;62759;-72
2022/03/14 03:18:40;;;;;;;8.60;4.70;;;;;;;-0.07;53.97;101257.89;108332;1274;74219;-72
2022/03/14 03:21:07;;;;;;;7.20;3.60;;;;;;;-0.09;54.13;101261.81;108257;1273;72866;-72
2022/03/14 03:23:34;;;;;;;14.40;4.40;;;;;;;-0.08;54.18;101267.04;108342;1274;72714;-72
2022/03/14 03:26:01;;;;;;;7.50;3.60;;;;;;;-0.08;54.10;101267.55;108289;1273;61577;-72
2022/03/14 03:28:35;;;;;;;9.00;5.00;;;;;;;-0.09;54.00;101271.58;108295;1274;60772;-72
2022/03/14 03:31:09;;;;;;;8.00;4.40;;;;;;;-0.08;53.81;101277.07;108390;1274;74166;-72
2022/03/14 03:33:37;;;;;;;7.60;4.30;;;;;;;-0.06;53.85;101276.46;108354;1274;72561;-72
2022/03/14 03:36:07;;;;;;;8.70;5.00;;;;;;;-0.07;53.89;101281.52;108319;1274;73060;-73
2022/03/14 03:38:38;;;;;;;7.80;4.30;;;;;;;-0.09;53.81;101281.12;108321;1274;59982;-72
2022/03/14 03:41:07;;;;;;;8.30;4.80;;;;;;;-0.10;53.78;101283.83;108327;1274;61772;-72
2022/03/14 03:43:34;;;;;;;7.60;5.10;;;;;;;-0.13;53.85;101284.14;108293;1274;74090;-72
2022/03/14 03:46:01;;;;;;;8.00;4.50;;;;;;;-0.15;54.16;101286.58;108073;1274;71566;-73
2022/03/14 03:48:28;;;;;;;8.40;4.80;;;;;;;-0.19;54.09;101291.45;108307;1274;73382;-72
2022/03/14 03:50:54;;;;;;;8.50;4.70;;;;;;;-0.22;54.07;101290.91;108374;1274;58671;-72
2022/03/14 03:53:21;;;;;;;6.30;4.10;;;;;;;-0.25;54.13;101285.92;108137;1274;60647;-73
2022/03/14 03:55:48;;;;;;;8.00;3.90;;;;;;;-0.27;54.48;101296.13;108307;1274;74168;-73
2022/03/14 03:58:15;;;;;;;9.60;5.10;;;;;;;-0.29;54.52;101301.13;108375;1274;71260;-73
2022/03/14 04:00:42;;;;;;;8.30;4.80;;;;;;;-0.32;54.74;101301.30;108352;1274;73444;-71
2022/03/14 04:03:09;;;;;;;11.90;5.00;;;;;;;-0.36;54.84;101296.98;108374;1274;59806;-71
2022/03/14 04:05:39;;;;;;;8.70;5.00;;;;;;;-0.39;54.94;101295.08;108364;1274;59330;-71
2022/03/14 04:08:10;;;;;;;12.70;5.60;;;;;;;-0.42;54.92;101300.09;108297;1274;75373;-71
2022/03/14 04:10:38;;;;;;;8.90;5.40;;;;;;;-0.44;54.92;101298.67;108395;1273;74310;-71
2022/03/14 04:13:06;;;;;;;7.00;4.00;;;;;;;-0.47;55.05;101297.45;108403;1274;74051;-72
2022/03/14 04:15:40;;;;;;;10.80;5.20;;;;;;;-0.50;55.11;101298.81;108246;1274;59842;-72
2022/03/14 04:18:07;;;;;;;7.20;4.80;;;;;;;-0.53;55.28;101299.17;108342;1274;60624;-71
2022/03/14 04:20:36;;;;;;;6.60;3.70;;;;;;;-0.53;55.47;101305.80;108340;1274;75359;-71
2022/03/14 04:23:02;;;;;;;9.20;5.40;;;;;;;-0.56;55.74;101300.73;108341;1274;70090;-71
2022/03/14 04:25:29;;;;;;;9.10;5.60;;;;;;;-0.60;55.90;101298.02;108294;1274;72996;-71
2022/03/14 04:27:55;;;;;;;7.50;4.90;;;;;;;-0.62;55.88;101306.81;108293;1275;59971;-71
2022/03/14 04:30:23;;;;;;;6.90;4.70;;;;;;;-0.65;55.93;101311.50;108379;1274;61392;-72
2022/03/14 04:32:49;;;;;;;7.40;4.40;;;;;;;-0.67;55.80;101314.73;108395;1274;74325;-72
2022/03/14 04:35:16;;;;;;;8.20;4.20;;;;;;;-0.69;56.06;101318.85;108163;1276;72724;-73
2022/03/14 04:37:43;;;;;;;7.10;4.40;;;;;;;-0.71;56.33;101319.48;108388;1274;73062;-72
2022/03/14 04:40:11;;;;;;;10.30;5.40;;;;;;;-0.72;56.41;101320.10;108076;1274;60654;-72
2022/03/14 04:42:37;;;;;;;9.70;5.70;;;;;;;-0.74;56.58;101319.35;108309;1274;60110;-72
2022/03/14 04:45:04;;;;;;;11.50;5.00;;;;;;;-0.75;56.63;101322.20;108405;1274;74077;-73
2022/03/14 04:47:31;;;;;;;7.50;4.40;;;;;;;-0.76;56.74;101324.34;108081;1274;71384;-72
2022/03/14 04:49:58;;;;;;;7.80;4.60;;;;;;;-0.78;56.80;101328.41;108270;1274;74163;-71
2022/03/14 04:52:28;;;;;;;10.20;4.90;;;;;;;-0.79;56.78;101334.39;108086;1274;60786;-71
2022/03/14 04:54:58;;;;;;;8.00;4.50;;;;;;;-0.81;56.82;101333.08;108217;1274;60384;-71
2022/03/14 04:57:25;;;;;;;7.20;4.30;;;;;;;-0.82;56.83;101333.13;108337;1274;75122;-71
2022/03/14 04:59:52;;;;;;;6.40;4.20;;;;;;;-0.84;56.93;101333.56;108406;1273;71302;-71
2022/03/14 05:02:22;;;;;;;8.10;4.50;;;;;;;-0.85;57.00;101336.21;108314;1274;72711;-71
2022/03/14 05:04:50;;;;;;;9.90;5.50;;;;;;;-0.85;57.14;101336.43;108213;1276;60916;-71
2022/03/14 05:07:17;;;;;;;11.60;5.30;;;;;;;-0.86;57.21;101341.65;108369;1274;59469;-72
2022/03/14 05:09:44;;;;;;;7.90;5.00;;;;;;;-0.86;57.37;101339.95;108387;1274;75197;-71
2022/03/14 05:12:11;;;;;;;7.30;4.30;;;;;;;-0.86;57.24;101340.28;108288;1275;72792;-72
2022/03/14 05:14:39;;;;;;;5.40;3.70;;;;;;;-0.86;57.24;101340.09;108039;1276;74060;-72
2022/03/14 05:17:07;;;;;;;9.10;5.40;;;;;;;-0.85;57.52;101342.31;108301;1274;60415;-72
2022/03/14 05:19:36;;;;;;;9.00;5.40;;;;;;;-0.84;57.56;101342.61;108281;1274;60622;-71
2022/03/14 05:22:07;;;;;;;9.50;4.20;;;;;;;-0.82;57.59;101348.75;108371;1274;75151;-71
2022/03/14 05:24:33;;;;;;;8.10;4.90;;;;;;;-0.80;57.73;101351.96;108148;1274;71539;-72
2022/03/14 05:27:00;;;;;;;9.60;5.20;;;;;;;-0.77;57.68;101355.11;108365;1273;72983;-72
2022/03/14 05:29:27;;;;;;;9.10;5.00;;;;;;;-0.74;57.62;101353.70;108076;1265;152586;-74
2022/03/14 05:31:53;;;;;;;8.20;4.90;;;;;;;-0.68;57.52;101360.34;107817;1265;155488;-71
2022/03/14 05:34:20;;;;;;;9.00;4.70;;;;;;;-0.61;57.78;101361.16;108378;1274;73932;-71
2022/03/14 05:36:49;;;;;;;9.50;5.60;;;;;;;-0.51;57.58;101363.34;108271;1274;70080;-71
2022/03/14 05:39:16;;;;;;;9.60;4.80;;;;;;;-0.40;57.56;101362.05;108394;1274;72136;-67
2022/03/14 05:41:44;;;;;;;9.10;5.80;;;;;;;-0.30;57.68;101358.52;108378;1274;58747;-68
2022/03/14 05:44:10;;;;;;;8.40;4.30;;;;;;;-0.21;57.63;101356.45;108125;1274;60708;-67
2022/03/14 05:46:40;;;;;;;7.30;4.70;;;;;;;-0.12;57.33;101352.61;108432;1274;74549;-71
2022/03/14 05:49:07;;;;;;;11.40;5.50;;;;;;;-0.01;57.11;101356.33;108349;1274;71676;-69
2022/03/14 05:51:37;;;;;;;9.60;5.10;;;;;;;0.10;56.87;101356.70;108387;1273;73039;-69
2022/03/14 05:54:04;;;;;;;10.90;5.40;;;;;;;0.20;56.66;101355.91;108372;1274;59821;-68
2022/03/14 05:56:31;;;;;;;6.10;3.70;;;;;;;0.31;56.53;101356.34;108283;1274;60395;-68
2022/03/14 05:58:58;;;;;;;9.60;5.20;;;;;;;0.39;56.17;101354.95;108263;1273;74258;-69
2022/03/14 06:01:26;;;;;;;7.70;4.70;;;;;;;0.49;55.78;101359.22;108439;1273;72467;-68
2022/03/14 06:03:53;;;;;;;10.30;5.00;;;;;;;0.58;55.60;101361.27;108343;1273;74141;-69
2022/03/14 06:06:20;;;;;;;11.60;5.90;;;;;;;0.70;55.59;101360.73;108396;1273;59638;-68
2022/03/14 06:08:46;;;;;;;5.50;4.00;;;;;;;0.82;55.49;101362.09;108284;1273;59591;-68
2022/03/14 06:11:13;;;;;;;8.60;4.20;;;;;;;0.91;55.15;101361.70;108440;1273;58920;-67
2022/03/14 06:13:42;;;;;;;10.20;5.30;;;;;;;1.01;55.05;101367.56;108418;1273;72311;-68
2022/03/14 06:16:09;;;;;;;8.70;4.60;;;;;;;1.08;54.99;101370.41;108443;1273;73245;-68
2022/03/14 06:18:36;;;;;;;10.00;4.60;;;;;;;1.16;54.90;101376.30;108398;1273;61322;-68
2022/03/14 06:21:05;;;;;;;7.30;4.90;;;;;;;1.28;54.59;101379.95;108442;1273;61838;-68
2022/03/14 06:23:32;;;;;;;10.60;5.30;;;;;;;1.40;54.32;101385.80;108399;1273;74224;-70
2022/03/14 06:25:59;;;;;;;12.30;5.00;;;;;;;1.52;54.17;101388.00;108420;1273;72353;-70
2022/03/14 06:28:26;;;;;;;9.10;4.60;;;;;;;1.65;54.06;101400.59;108367;1273;72870;-69
2022/03/14 06:30:52;;;;;;;9.90;4.10;;;;;;;1.77;53.84;101400.10;108479;1273;58286;-70
2022/03/14 06:33:18;;;;;;;7.30;3.40;;;;;;;1.91;53.57;101405.34;108534;1273;58263;-70
2022/03/14 06:35:46;;;;;;;10.70;5.20;;;;;;;2.04;53.39;101404.45;108479;1273;59034;-68
2022/03/14 06:38:12;;;;;;;9.30;4.80;;;;;;;2.18;52.95;101407.03;108554;1273;71336;-68
2022/03/14 06:40:41;;;;;;;8.30;5.50;;;;;;;2.33;52.99;101408.45;108512;1273;72851;-69
2022/03/14 06:43:10;;;;;;;9.10;5.40;;;;;;;2.48;52.52;101411.79;108493;1273;60530;-68
2022/03/14 06:45:39;;;;;;;11.90;5.90;;;;;;;2.65;52.38;101417.79;108528;1273;60432;-69
2022/03/14 06:48:06;;;;;;;7.10;5.30;;;;;;;2.80;52.07;101415.48;108515;1274;74167;-69
2022/03/14 06:50:35;;;;;;;9.50;4.80;;;;;;;2.95;51.85;101421.33;108530;1273;72519;-69
2022/03/14 06:53:03;;;;;;;8.80;5.10;;;;;;;3.05;51.72;101423.21;108546;1273;73030;-68
2022/03/14 06:55:29;;;;;;;9.80;6.30;;;;;;;3.16;51.13;101423.81;108388;1273;59960;-69
2022/03/14 06:57:56;;;;;;;10.20;6.00;;;;;;;3.27;50.88;101433.05;108545;1273;58206;-69
2022/03/14 07:00:24;;;;;;;13.40;7.00;;;;;;;3.38;50.44;101442.26;108546;1273;75218;-70
2022/03/14 07:02:50;;;;;;;12.40;6.80;;;;;;;3.48;50.18;101449.21;108380;1274;69224;-70
2022/03/14 07:05:23;;;;;;;9.70;6.10;;;;;;;3.58;50.50;101451.66;108444;1274;74038;-69
2022/03/14 07:07:50;;;;;;;9.70;5.80;;;;;;;3.67;50.37;101457.77;108494;1273;59805;-67
2022/03/14 07:10:18;;;;;;;16.00;6.50;;;;;;;3.74;50.50;101460.76;108211;1273;336481;-69
2022/03/14 07:12:46;;;;;;;11.30;5.90;;;;;;;3.85;50.48;101467.35;108361;1273;74176;-70
2022/03/14 07:15:21;;;;;;;8.80;5.40;;;;;;;3.94;50.46;101466.67;108376;1272;71512;-69
2022/03/14 07:17:49;;;;;;;7.10;5.00;;;;;;;4.03;50.10;101471.45;108523;1273;71781;-69
2022/03/14 07:20:20;;;;;;;12.80;6.20;;;;;;;4.12;50.08;101475.67;108494;1273;60075;-68
2022/03/14 07:23:05;;;;;;;12.40;6.40;;;;;;;4.23;49.82;101474.02;108510;1273;59718;-70
2022/03/14 07:25:35;;;;;;;9.20;5.40;;;;;;;4.34;50.07;101469.80;108333;1273;74357;-70
2022/03/14 07:28:04;;;;;;;10.20;6.70;;;;;;;4.43;49.67;101467.77;108521;1273;71421;-69
2022/03/14 07:30:31;;;;;;;11.90;6.10;;;;;;;4.51;49.25;101472.77;108344;1274;74080;-69
2022/03/14 07:32:58;;;;;;;14.20;7.40;;;;;;;4.60;49.15;101480.11;108477;1273;59831;-67
2022/03/14 07:35:26;;;;;;;10.30;5.70;;;;;;;4.71;49.07;101483.86;108549;1273;60569;-67
2022/03/14 07:38:02;;;;;;;11.30;5.70;;;;;;;4.80;48.85;101484.19;108550;1272;74299;-68
2022/03/14 07:40:38;;;;;;;15.60;6.70;;;;;;;4.89;49.02;101483.35;108533;1273;72535;-69
2022/03/14 07:43:05;;;;;;;14.90;7.40;;;;;;;4.99;49.21;101489.47;108356;1273;73052;-69
2022/03/14 07:45:32;;;;;;;24.50;7.40;;;;;;;5.06;49.71;101494.63;108522;1273;59705;-69
2022/03/14 07:48:04;;;;;;;23.90;8.50;;;;;;;5.14;49.53;101501.41;108532;1273;61262;-68
2022/03/14 07:50:31;;;;;;;24.40;8.60;;;;;;;5.20;49.82;101506.56;108494;1274;74045;-69
2022/03/14 07:52:57;;;;;;;18.60;9.10;;;;;;;5.25;49.93;101508.95;108523;1273;71470;-69
2022/03/14 07:55:24;;;;;;;17.60;8.10;;;;;;;5.31;50.25;101507.10;108541;1273;74262;-67
2022/03/14 07:57:51;;;;;;;23.50;8.30;;;;;;;5.37;50.29;101506.64;108328;1273;61228;-69
2022/03/14 08:00:19;;;;;;;20.90;7.80;;;;;;;5.43;50.57;101499.81;108519;1271;58593;-69
2022/03/14 08:02:47;;;;;;;18.70;7.20;;;;;;;5.52;50.93;101501.08;108475;1273;74162;-67
2022/03/14 08:05:16;;;;;;;12.20;5.80;;;;;;;5.63;50.77;101503.49;108542;1272;72730;-70
2022/03/14 08:07:45;;;;;;;13.80;6.70;;;;;;;5.76;50.93;101504.23;108513;1273;74162;-68
2022/03/14 08:10:19;;;;;;;15.40;6.80;;;;;;;5.89;51.10;101504.25;108533;1273;62037;-67
2022/03/14 08:12:49;;;;;;;14.10;6.40;;;;;;;6.03;51.60;101505.20;108439;1273;61369;-68
2022/03/14 08:15:25;;;;;;;11.50;5.80;;;;;;;6.16;51.51;101506.79;108501;1273;74458;-70
2022/03/14 08:17:57;;;;;;;10.60;5.90;;;;;;;6.30;51.53;101511.31;108415;1273;72366;-70
2022/03/14 08:20:32;;;;;;;12.90;7.10;;;;;;;6.44;51.35;101513.80;108513;1273;74136;-70
2022/03/14 08:23:02;;;;;;;;;;;;;;;6.60;51.25;101513.05;108517;1273;61456;-68
2022/03/14 08:25:34;;;;;;;25.90;9.40;;;;;;;6.74;51.44;101503.40;108508;1273;59400;-70
2022/03/14 08:28:01;;;;;;;34.50;9.00;;;;;;;6.88;51.61;101513.98;108448;1274;74058;-68
2022/03/14 08:30:28;;;;;;;30.50;8.20;;;;;;;7.01;51.74;101519.74;108388;1274;70342;-69
2022/03/14 08:32:56;;;;;;;34.90;9.10;;;;;;;7.14;51.95;101519.51;108513;1273;74227;-70
2022/03/14 08:35:24;;;;;;;29.00;7.90;;;;;;;7.31;52.14;101516.80;108454;1273;59822;-70
2022/03/14 08:37:55;;;;;;;29.20;7.00;;;;;;;7.44;51.95;101519.55;108397;1273;60335;-68
2022/03/14 08:40:24;;;;;;;26.00;8.10;;;;;;;7.56;52.26;101520.94;108468;1273;75201;-70
2022/03/14 08:42:55;;;;;;;22.80;9.00;;;;;;;7.67;52.36;101525.27;108460;1273;71112;-70
2022/03/14 08:45:24;;;;;;;19.80;7.20;;;;;;;7.77;52.84;101525.05;108497;1273;73154;-70
2022/03/14 08:47:52;;;;;;;38.90;10.30;;;;;;;7.87;52.90;101532.46;108524;1273;59800;-70
2022/03/14 08:50:19;;;;;;;21.40;7.80;;;;;;;7.97;52.88;101537.09;108546;1273;60607;-70
2022/03/14 08:52:48;;;;;;;16.30;7.20;;;;;;;8.04;53.08;101538.54;108553;1273;58789;-70
2022/03/14 08:55:15;;;;;;;24.30;7.60;;;;;;;8.09;53.54;101539.83;108434;1273;71586;-70
2022/03/14 08:57:42;;;;;;;20.70;7.80;;;;;;;8.17;54.03;101540.59;108498;1273;74030;-69
2022/03/14 09:00:11;;;;;;;24.50;10.40;;;;;;;8.23;54.28;101542.48;108422;1273;58712;-71
2022/03/14 09:02:38;;;;;;;18.30;7.90;;;;;;;8.28;54.65;101539.50;108487;1274;60361;-68
2022/03/14 09:05:05;;;;;;;26.20;9.50;;;;;;;8.36;55.29;101539.86;108544;1273;75448;-68
2022/03/14 09:07:32;;;;;;;20.50;7.70;;;;;;;8.45;56.58;101539.48;108486;1274;72413;-69
2022/03/14 09:10:08;;;;;;;20.20;9.60;;;;;;;8.54;58.14;101543.54;108458;1274;58347;-68
2022/03/14 09:12:37;;;;;;;13.10;7.30;;;;;;;8.67;59.91;101543.77;108365;1273;59066;-68
2022/03/14 09:15:07;;;;;;;16.20;7.60;;;;;;;8.85;59.80;101549.84;108276;1274;61415;-70
2022/03/14 09:17:35;;;;;;;18.80;8.30;;;;;;;9.04;61.39;101554.84;108416;1273;75531;-70
2022/03/14 09:20:05;;;;;;;20.20;8.00;;;;;;;9.21;62.16;101553.02;108470;1273;71148;-70
2022/03/14 09:22:32;;;;;;;17.70;7.80;;;;;;;9.35;63.13;101557.67;108488;1274;73925;-68
2022/03/14 09:25:02;;;;;;;15.50;8.60;;;;;;;9.48;63.60;101561.46;108445;1273;60626;-70
2022/03/14 09:27:28;;;;;;;14.80;8.50;;;;;;;9.63;63.42;101564.20;108578;1273;60584;-70
2022/03/14 09:29:55;;;;;;;13.20;7.60;;;;;;;9.73;63.69;101565.33;108500;1273;58895;-68
2022/03/14 09:32:23;;;;;;;13.30;7.80;;;;;;;9.86;63.53;101562.08;108548;1273;70334;-68
2022/03/14 09:34:50;;;;;;;10.70;7.00;;;;;;;9.95;63.89;101567.55;108449;1273;72844;-68
2022/03/14 09:37:16;;;;;;;12.30;7.20;;;;;;;10.00;64.40;101571.28;108536;1273;58343;-70
2022/03/14 09:39:43;;;;;;;11.40;7.80;;;;;;;10.03;64.52;101571.46;108433;1273;60598;-69
2022/03/14 09:42:12;;;;;;;14.90;7.10;;;;;;;10.08;64.23;101580.02;108529;1273;74121;-71
2022/03/14 09:44:42;;;;;;;9.90;5.30;;;;;;;10.05;65.51;101586.15;108431;1273;72572;-68
2022/03/14 09:47:13;;;;;;;10.20;5.90;;;;;;;10.06;65.59;101586.78;108511;1273;71824;-69
2022/03/14 09:49:47;;;;;;;9.90;6.00;;;;;;;10.05;66.13;101593.42;108188;1274;59091;-70
2022/03/14 09:52:18;;;;;;;11.20;6.50;;;;;;;10.02;66.39;101595.96;108530;1273;59566;-69
2022/03/14 09:54:45;;;;;;;9.60;6.00;;;;;;;10.04;66.55;101606.75;108499;1273;74097;-70
2022/03/14 09:57:13;;;;;;;10.10;6.20;;;;;;;10.06;66.68;101605.48;108522;1273;73035;-69
2022/03/14 09:59:41;;;;;;;12.50;7.10;;;;;;;10.08;66.61;101606.05;108546;1273;72283;-68
2022/03/14 10:02:14;;;;;;;10.90;6.40;;;;;;;10.05;67.32;101610.58;108495;1272;60596;-71
2022/03/14 10:04:41;;;;;;;9.40;5.60;;;;;;;10.00;67.51;101614.05;108529;1273;61491;-69
2022/03/14 10:07:08;;;;;;;10.30;6.60;;;;;;;9.96;68.08;101617.29;108517;1273;73761;-70
2022/03/14 10:09:35;;;;;;;9.30;5.80;;;;;;;9.90;68.49;101618.12;108535;1273;58288;-71
2022/03/14 10:12:02;;;;;;;10.00;6.50;;;;;;;9.87;68.62;101622.85;108526;1273;74002;-70
2022/03/14 10:14:29;;;;;;;10.20;5.60;;;;;;;9.85;69.00;101629.94;108518;1273;60421;-71
2022/03/14 10:16:59;;;;;;;8.90;5.40;;;;;;;9.88;68.97;101632.70;108445;1273;61556;-70
2022/03/14 10:19:30;;;;;;;9.10;5.50;;;;;;;9.89;69.32;101639.53;108511;1273;75661;-69
2022/03/14 10:22:13;;;;;;;10.90;7.20;;;;;;;9.86;68.18;101640.65;108397;1274;73052;-68
2022/03/14 10:24:40;;;;;;;8.50;6.10;;;;;;;9.84;68.52;101642.98;108303;1273;74321;-68
2022/03/14 10:27:07;;;;;;;9.60;5.10;;;;;;;9.80;68.89;101644.92;108482;1273;63806;-70
2022/03/14 10:29:36;;;;;;;8.40;5.50;;;;;;;9.75;69.85;101652.09;108508;1273;60747;-68
2022/03/14 10:32:30;;;;;;;10.90;5.60;;;;;;;9.71;70.43;101655.12;108337;1274;72654;-69
2022/03/14 10:35:04;;;;;;;19.00;7.90;;;;;;;9.67;71.24;101660.14;108507;1273;71404;-70
2022/03/14 10:37:35;;;;;;;8.60;5.70;;;;;;;9.64;71.85;101663.40;108268;1274;73369;-71
2022/03/14 10:40:08;;;;;;;8.20;5.40;;;;;;;9.56;72.74;101669.75;108491;1273;61971;-68
2022/03/14 10:42:42;;;;;;;7.90;6.00;;;;;;;9.49;73.02;101671.13;108455;1273;60667;-71
2022/03/14 10:45:11;;;;;;;;;;;;;;;9.51;74.32;101674.71;108473;1274;74131;-71
2022/03/14 10:47:45;;;;;;;6.90;4.80;;;;;;;9.49;75.44;101678.19;108326;1274;72403;-70
2022/03/14 10:50:41;;;;;;;7.40;4.20;;;;;;;9.46;76.13;101686.48;108500;1273;74075;-72
2022/03/14 10:53:17;;;;;;;8.40;6.70;;;;;;;9.48;77.11;101691.08;108407;1274;62290;-69
2022/03/14 10:55:48;;;;;;;24.50;18.20;;;;;;;9.45;77.35;101696.30;108526;1273;62053;-70
2022/03/14 10:58:23;;;;;;;17.50;14.20;;;;;;;9.38;78.18;101700.58;108500;1273;74627;-70
2022/03/14 11:01:02;;;;;;;16.50;14.10;;;;;;;9.34;78.30;101701.27;108487;1273;71415;-69
2022/03/14 11:03:35;;;;;;;16.80;13.70;;;;;;;9.35;78.35;101700.91;108525;1273;72706;-71
2022/03/14 11:06:11;;;;;;;40.30;33.40;;;;;;;9.33;79.33;101697.92;108487;1273;61804;-70
2022/03/14 11:08:58;;;;;;;20.70;18.00;;;;;;;9.30;79.18;101700.52;108535;1273;61743;-70
2022/03/14 11:11:25;;;;;;;21.30;18.30;;;;;;;9.25;79.95;101698.45;108480;1273;74221;-70
2022/03/14 11:13:55;;;;;;;19.70;16.80;;;;;;;9.21;79.98;101703.77;108492;1273;71162;-71
2022/03/14 11:16:28;;;;;;;15.30;12.30;;;;;;;9.18;80.54;101700.86;108332;1274;71569;-69
2022/03/14 11:18:57;;;;;;;32.10;26.10;;;;;;;9.14;80.70;101705.86;108326;1275;62239;-68
2022/03/14 11:21:31;;;;;;;28.60;21.90;;;;;;;9.10;81.52;101710.77;108530;1272;59464;-70
2022/03/14 11:24:00;;;;;;;15.70;12.00;;;;;;;9.03;81.93;101710.01;108533;1273;75201;-70
2022/03/14 11:26:27;;;;;;;15.40;10.60;;;;;;;8.97;82.37;101713.15;108353;1274;71380;-69